sensor_id;sensor_type;location;lat;lon;timestamp;pressure;altitude;pressure_sealevel;temperature;humidity
75640;BME280;64233;51.486;6.332;2023-02-28T00:00:17;102720.69;;;-1.87;94.70
75640;BME280;64233;51.486;6.332;2023-02-28T00:02:43;102721.53;;;-1.98;94.94
75640;BME280;64233;51.486;6.332;2023-02-28T00:05:11;102725.25;;;-2.12;94.91
75640;BME280;64233;51.486;6.332;2023-02-28T00:07:37;102717.34;;;-2.01;95.14
75640;BME280;64233;51.486;6.332;2023-02-28T00:10:05;102719.38;;;-2.16;95.12
75640;BME280;64233;51.486;6.332;2023-02-28T00:12:31;102714.59;;;-2.11;95.41
75640;BME280;64233;51.486;6.332;2023-02-28T00:14:57;102715.66;;;-2.13;95.67
75640;BME280;64233;51.486;6.332;2023-02-28T00:17:22;102722.38;;;-1.98;95.94
75640;BME280;64233;51.486;6.332;2023-02-28T00:19:48;102724.50;;;-2.03;95.62
75640;BME280;64233;51.486;6.332;2023-02-28T00:22:14;102721.28;;;-2.18;95.68
75640;BME280;64233;51.486;6.332;2023-02-28T00:24:40;102714.97;;;-2.04;96.06
75640;BME280;64233;51.486;6.332;2023-02-28T00:27:05;102724.31;;;-2.11;96.06
75640;BME280;64233;51.486;6.332;2023-02-28T00:29:30;102725.63;;;-2.05;95.68
75640;BME280;64233;51.486;6.332;2023-02-28T00:31:55;102726.44;;;-2.05;95.87
75640;BME280;64233;51.486;6.332;2023-02-28T00:34:21;102728.34;;;-2.07;96.04
75640;BME280;64233;51.486;6.332;2023-02-28T00:36:46;102728.25;;;-2.05;96.18
75640;BME280;64233;51.486;6.332;2023-02-28T00:39:14;102730.25;;;-2.09;96.13
75640;BME280;64233;51.486;6.332;2023-02-28T00:41:45;102736.34;;;-2.09;96.26
75640;BME280;64233;51.486;6.332;2023-02-28T00:44:17;102732.66;;;-2.06;96.16
75640;BME280;64233;51.486;6.332;2023-02-28T00:46:42;102734.69;;;-2.21;96.55
75640;BME280;64233;51.486;6.332;2023-02-28T00:49:08;102738.50;;;-2.25;96.61
75640;BME280;64233;51.486;6.332;2023-02-28T00:51:33;102738.03;;;-2.30;96.79
75640;BME280;64233;51.486;6.332;2023-02-28T00:53:58;102732.63;;;-2.40;96.91
75640;BME280;64233;51.486;6.332;2023-02-28T00:56:24;102732.59;;;-2.51;97.40
75640;BME280;64233;51.486;6.332;2023-02-28T00:58:49;102738.44;;;-2.59;97.61
75640;BME280;64233;51.486;6.332;2023-02-28T01:01:14;102741.66;;;-2.55;98.10
75640;BME280;64233;51.486;6.332;2023-02-28T01:03:39;102736.09;;;-2.51;97.97
75640;BME280;64233;51.486;6.332;2023-02-28T01:06:05;102741.69;;;-2.44;97.95
75640;BME280;64233;51.486;6.332;2023-02-28T01:08:30;102747.56;;;-2.40;98.10
75640;BME280;64233;51.486;6.332;2023-02-28T01:10:56;102738.34;;;-2.46;98.20
75640;BME280;64233;51.486;6.332;2023-02-28T01:13:22;102738.13;;;-2.43;98.24
75640;BME280;64233;51.486;6.332;2023-02-28T01:15:54;102742.06;;;-2.37;98.47
75640;BME280;64233;51.486;6.332;2023-02-28T01:18:20;102745.19;;;-2.44;98.27
75640;BME280;64233;51.486;6.332;2023-02-28T01:20:46;102742.41;;;-2.53;98.49
75640;BME280;64233;51.486;6.332;2023-02-28T01:23:11;102746.47;;;-2.49;98.35
75640;BME280;64233;51.486;6.332;2023-02-28T01:25:37;102747.06;;;-2.46;98.37
75640;BME280;64233;51.486;6.332;2023-02-28T01:28:03;102735.44;;;-2.66;98.36
75640;BME280;64233;51.486;6.332;2023-02-28T01:30:28;102739.75;;;-2.65;98.50
75640;BME280;64233;51.486;6.332;2023-02-28T01:32:54;102742.38;;;-2.65;98.51
75640;BME280;64233;51.486;6.332;2023-02-28T01:35:19;102747.44;;;-2.50;98.60
75640;BME280;64233;51.486;6.332;2023-02-28T01:37:45;102734.38;;;-2.63;98.60
75640;BME280;64233;51.486;6.332;2023-02-28T01:40:11;102737.38;;;-2.56;98.91
75640;BME280;64233;51.486;6.332;2023-02-28T01:42:36;102732.03;;;-2.44;98.50
75640;BME280;64233;51.486;6.332;2023-02-28T01:45:04;102728.66;;;-2.46;98.58
75640;BME280;64233;51.486;6.332;2023-02-28T01:47:34;102733.22;;;-2.48;98.57
75640;BME280;64233;51.486;6.332;2023-02-28T01:50:04;102727.47;;;-2.53;98.79
75640;BME280;64233;51.486;6.332;2023-02-28T01:52:31;102722.31;;;-2.54;98.79
75640;BME280;64233;51.486;6.332;2023-02-28T01:54:59;102728.53;;;-2.55;98.90
75640;BME280;64233;51.486;6.332;2023-02-28T01:57:32;102724.81;;;-2.64;99.31
75640;BME280;64233;51.486;6.332;2023-02-28T02:00:05;102712.94;;;-2.70;99.31
75640;BME280;64233;51.486;6.332;2023-02-28T02:02:33;102715.59;;;-2.70;99.90
75640;BME280;64233;51.486;6.332;2023-02-28T02:05:10;102720.69;;;-2.80;100.00
75640;BME280;64233;51.486;6.332;2023-02-28T02:07:39;102715.91;;;-2.86;100.00
75640;BME280;64233;51.486;6.332;2023-02-28T02:10:15;102710.75;;;-2.87;100.00
75640;BME280;64233;51.486;6.332;2023-02-28T02:15:33;102709.34;;;-2.80;100.00
75640;BME280;64233;51.486;6.332;2023-02-28T02:21:17;102701.81;;;-2.85;100.00
75640;BME280;64233;51.486;6.332;2023-02-28T02:24:25;102709.19;;;-2.90;100.00
75640;BME280;64233;51.486;6.332;2023-02-28T02:38:36;102695.63;;;-3.93;100.00
75640;BME280;64233;51.486;6.332;2023-02-28T02:43:33;102698.06;;;-3.66;100.00
75640;BME280;64233;51.486;6.332;2023-02-28T02:46:03;102692.88;;;-3.55;100.00
75640;BME280;64233;51.486;6.332;2023-02-28T02:48:33;102705.19;;;-3.55;100.00
75640;BME280;64233;51.486;6.332;2023-02-28T02:51:02;102700.34;;;-3.61;100.00
75640;BME280;64233;51.486;6.332;2023-02-28T02:53:42;102706.25;;;-3.34;100.00
75640;BME280;64233;51.486;6.332;2023-02-28T02:56:10;102702.84;;;-3.23;100.00
75640;BME280;64233;51.486;6.332;2023-02-28T02:58:40;102710.31;;;-3.05;100.00
75640;BME280;64233;51.486;6.332;2023-02-28T03:01:08;102707.59;;;-3.04;100.00
75640;BME280;64233;51.486;6.332;2023-02-28T03:03:35;102708.22;;;-3.00;100.00
75640;BME280;64233;51.486;6.332;2023-02-28T03:06:01;102708.56;;;-2.94;100.00
75640;BME280;64233;51.486;6.332;2023-02-28T03:08:27;102705.34;;;-2.97;100.00
75640;BME280;64233;51.486;6.332;2023-02-28T03:10:59;102702.72;;;-2.97;99.96
75640;BME280;64233;51.486;6.332;2023-02-28T03:16:16;102701.66;;;-2.95;100.00
75640;BME280;64233;51.486;6.332;2023-02-28T03:18:56;102693.28;;;-3.00;100.00
75640;BME280;64233;51.486;6.332;2023-02-28T03:21:43;102690.53;;;-2.98;100.00
75640;BME280;64233;51.486;6.332;2023-02-28T03:24:23;102688.59;;;-3.07;100.00
75640;BME280;64233;51.486;6.332;2023-02-28T03:26:56;102685.47;;;-3.13;100.00
75640;BME280;64233;51.486;6.332;2023-02-28T03:29:35;102691.59;;;-3.01;100.00
75640;BME280;64233;51.486;6.332;2023-02-28T03:32:13;102689.09;;;-2.91;100.00
75640;BME280;64233;51.486;6.332;2023-02-28T03:34:56;102693.16;;;-2.98;99.46
75640;BME280;64233;51.486;6.332;2023-02-28T03:37:24;102690.59;;;-3.11;99.89
75640;BME280;64233;51.486;6.332;2023-02-28T03:42:45;102700.75;;;-3.55;100.00
75640;BME280;64233;51.486;6.332;2023-02-28T03:45:32;102703.88;;;-3.74;100.00
75640;BME280;64233;51.486;6.332;2023-02-28T03:48:12;102711.16;;;-3.90;100.00
75640;BME280;64233;51.486;6.332;2023-02-28T03:50:40;102707.91;;;-3.94;100.00
75640;BME280;64233;51.486;6.332;2023-02-28T03:53:12;102710.13;;;-4.01;100.00
75640;BME280;64233;51.486;6.332;2023-02-28T03:55:42;102700.44;;;-4.00;100.00
75640;BME280;64233;51.486;6.332;2023-02-28T03:58:21;102702.13;;;-3.86;100.00
75640;BME280;64233;51.486;6.332;2023-02-28T04:00:55;102693.13;;;-3.58;100.00
75640;BME280;64233;51.486;6.332;2023-02-28T04:03:22;102697.50;;;-3.46;100.00
75640;BME280;64233;51.486;6.332;2023-02-28T04:05:53;102688.75;;;-3.46;100.00
75640;BME280;64233;51.486;6.332;2023-02-28T04:08:19;102697.78;;;-3.50;100.00
75640;BME280;64233;51.486;6.332;2023-02-28T04:10:50;102701.41;;;-3.51;100.00
75640;BME280;64233;51.486;6.332;2023-02-28T04:13:18;102696.69;;;-3.59;100.00
75640;BME280;64233;51.486;6.332;2023-02-28T04:15:43;102697.47;;;-3.70;100.00
75640;BME280;64233;51.486;6.332;2023-02-28T04:18:08;102702.19;;;-3.75;100.00
75640;BME280;64233;51.486;6.332;2023-02-28T04:20:34;102698.25;;;-3.93;100.00
75640;BME280;64233;51.486;6.332;2023-02-28T04:22:59;102698.56;;;-3.98;100.00
75640;BME280;64233;51.486;6.332;2023-02-28T04:25:24;102699.72;;;-3.89;100.00
75640;BME280;64233;51.486;6.332;2023-02-28T04:27:49;102703.22;;;-3.65;100.00
75640;BME280;64233;51.486;6.332;2023-02-28T04:30:15;102703.63;;;-3.58;100.00
75640;BME280;64233;51.486;6.332;2023-02-28T04:32:40;102708.31;;;-3.50;100.00
75640;BME280;64233;51.486;6.332;2023-02-28T04:35:06;102709.69;;;-3.57;100.00
75640;BME280;64233;51.486;6.332;2023-02-28T04:37:31;102706.31;;;-3.84;100.00
75640;BME280;64233;51.486;6.332;2023-02-28T04:40:00;102708.84;;;-3.95;100.00
75640;BME280;64233;51.486;6.332;2023-02-28T04:42:25;102710.22;;;-4.02;100.00
75640;BME280;64233;51.486;6.332;2023-02-28T04:44:50;102709.38;;;-4.03;100.00
75640;BME280;64233;51.486;6.332;2023-02-28T04:47:16;102713.25;;;-3.83;100.00
75640;BME280;64233;51.486;6.332;2023-02-28T04:49:41;102719.22;;;-3.81;100.00
75640;BME280;64233;51.486;6.332;2023-02-28T04:52:06;102700.78;;;-4.05;100.00
75640;BME280;64233;51.486;6.332;2023-02-28T04:54:32;102709.38;;;-4.03;100.00
75640;BME280;64233;51.486;6.332;2023-02-28T04:56:57;102711.97;;;-3.77;100.00
75640;BME280;64233;51.486;6.332;2023-02-28T04:59:23;102710.25;;;-3.65;100.00
75640;BME280;64233;51.486;6.332;2023-02-28T05:01:48;102708.03;;;-3.58;100.00
75640;BME280;64233;51.486;6.332;2023-02-28T05:04:14;102705.91;;;-3.53;100.00
75640;BME280;64233;51.486;6.332;2023-02-28T05:06:40;102715.69;;;-3.55;100.00
75640;BME280;64233;51.486;6.332;2023-02-28T05:09:05;102716.34;;;-3.65;100.00
75640;BME280;64233;51.486;6.332;2023-02-28T05:11:32;102706.38;;;-3.72;100.00
75640;BME280;64233;51.486;6.332;2023-02-28T05:14:06;102716.16;;;-3.74;100.00
75640;BME280;64233;51.486;6.332;2023-02-28T05:16:32;102723.75;;;-4.21;100.00
75640;BME280;64233;51.486;6.332;2023-02-28T05:18:58;102725.03;;;-4.27;100.00
75640;BME280;64233;51.486;6.332;2023-02-28T05:23:51;102728.28;;;-4.10;100.00
75640;BME280;64233;51.486;6.332;2023-02-28T05:26:17;102730.69;;;-4.07;100.00
75640;BME280;64233;51.486;6.332;2023-02-28T05:28:43;102733.09;;;-4.04;100.00
75640;BME280;64233;51.486;6.332;2023-02-28T05:31:11;102732.59;;;-4.09;100.00
75640;BME280;64233;51.486;6.332;2023-02-28T05:33:36;102744.25;;;-4.13;100.00
75640;BME280;64233;51.486;6.332;2023-02-28T05:36:02;102739.00;;;-4.13;100.00
75640;BME280;64233;51.486;6.332;2023-02-28T05:38:27;102742.75;;;-4.05;100.00
75640;BME280;64233;51.486;6.332;2023-02-28T05:40:53;102748.66;;;-4.01;100.00
75640;BME280;64233;51.486;6.332;2023-02-28T05:43:18;102746.63;;;-3.85;100.00
75640;BME280;64233;51.486;6.332;2023-02-28T05:45:43;102754.72;;;-3.88;100.00
75640;BME280;64233;51.486;6.332;2023-02-28T05:48:09;102751.16;;;-3.87;100.00
75640;BME280;64233;51.486;6.332;2023-02-28T05:50:34;102748.81;;;-3.78;100.00
75640;BME280;64233;51.486;6.332;2023-02-28T05:52:59;102749.97;;;-3.70;100.00
75640;BME280;64233;51.486;6.332;2023-02-28T05:55:24;102748.72;;;-3.77;99.91
75640;BME280;64233;51.486;6.332;2023-02-28T05:57:50;102754.50;;;-3.98;99.41
75640;BME280;64233;51.486;6.332;2023-02-28T06:00:15;102745.91;;;-4.00;99.65
75640;BME280;64233;51.486;6.332;2023-02-28T06:02:42;102753.69;;;-3.98;99.11
75640;BME280;64233;51.486;6.332;2023-02-28T06:05:14;102744.13;;;-3.99;99.17
75640;BME280;64233;51.486;6.332;2023-02-28T06:07:39;102751.69;;;-4.07;99.04
75640;BME280;64233;51.486;6.332;2023-02-28T06:10:05;102748.63;;;-3.88;98.92
75640;BME280;64233;51.486;6.332;2023-02-28T06:12:31;102746.19;;;-3.78;98.49
75640;BME280;64233;51.486;6.332;2023-02-28T06:14:56;102745.69;;;-3.84;97.88
75640;BME280;64233;51.486;6.332;2023-02-28T06:17:21;102753.25;;;-3.92;97.95
75640;BME280;64233;51.486;6.332;2023-02-28T06:19:46;102751.78;;;-3.96;97.47
75640;BME280;64233;51.486;6.332;2023-02-28T06:22:13;102762.91;;;-3.92;97.63
75640;BME280;64233;51.486;6.332;2023-02-28T06:24:38;102762.06;;;-3.93;97.60
75640;BME280;64233;51.486;6.332;2023-02-28T06:27:03;102763.31;;;-3.86;97.81
75640;BME280;64233;51.486;6.332;2023-02-28T06:29:31;102764.47;;;-3.90;97.67
75640;BME280;64233;51.486;6.332;2023-02-28T06:31:56;102765.53;;;-3.92;97.94
75640;BME280;64233;51.486;6.332;2023-02-28T06:34:22;102763.19;;;-3.97;97.75
75640;BME280;64233;51.486;6.332;2023-02-28T06:36:50;102766.25;;;-3.90;97.53
75640;BME280;64233;51.486;6.332;2023-02-28T06:39:15;102770.88;;;-3.94;97.44
75640;BME280;64233;51.486;6.332;2023-02-28T06:41:41;102776.75;;;-4.03;97.39
75640;BME280;64233;51.486;6.332;2023-02-28T06:44:14;102777.91;;;-4.07;97.77
75640;BME280;64233;51.486;6.332;2023-02-28T06:46:40;102770.56;;;-4.02;98.08
75640;BME280;64233;51.486;6.332;2023-02-28T06:49:07;102773.81;;;-3.99;98.44
75640;BME280;64233;51.486;6.332;2023-02-28T06:51:34;102780.53;;;-3.94;98.36
75640;BME280;64233;51.486;6.332;2023-02-28T06:54:00;102772.66;;;-3.94;98.26
75640;BME280;64233;51.486;6.332;2023-02-28T06:56:25;102777.50;;;-3.88;98.40
75640;BME280;64233;51.486;6.332;2023-02-28T06:58:51;102777.38;;;-3.87;98.48
75640;BME280;64233;51.486;6.332;2023-02-28T07:01:18;102777.50;;;-3.88;98.54
75640;BME280;64233;51.486;6.332;2023-02-28T07:03:44;102776.63;;;-3.89;98.47
75640;BME280;64233;51.486;6.332;2023-02-28T07:06:10;102781.25;;;-3.79;98.33
75640;BME280;64233;51.486;6.332;2023-02-28T07:08:35;102782.19;;;-3.81;98.31
75640;BME280;64233;51.486;6.332;2023-02-28T07:11:01;102783.25;;;-3.83;98.55
75640;BME280;64233;51.486;6.332;2023-02-28T07:13:27;102788.69;;;-3.73;98.14
75640;BME280;64233;51.486;6.332;2023-02-28T07:16:14;102792.06;;;-3.71;98.27
75640;BME280;64233;51.486;6.332;2023-02-28T07:18:39;102793.72;;;-3.70;98.17
75640;BME280;64233;51.486;6.332;2023-02-28T07:21:07;102799.06;;;-3.59;97.80
75640;BME280;64233;51.486;6.332;2023-02-28T07:23:33;102798.03;;;-3.56;97.89
75640;BME280;64233;51.486;6.332;2023-02-28T07:25:58;102802.63;;;-3.47;97.64
75640;BME280;64233;51.486;6.332;2023-02-28T07:28:24;102804.81;;;-3.41;97.71
75640;BME280;64233;51.486;6.332;2023-02-28T07:30:50;102803.66;;;-3.37;97.78
75640;BME280;64233;51.486;6.332;2023-02-28T07:33:15;102808.97;;;-3.25;97.29
75640;BME280;64233;51.486;6.332;2023-02-28T07:35:41;102808.66;;;-3.21;97.25
75640;BME280;64233;51.486;6.332;2023-02-28T07:38:06;102806.44;;;-3.14;97.18
75640;BME280;64233;51.486;6.332;2023-02-28T07:40:35;102802.19;;;-3.04;96.92
75640;BME280;64233;51.486;6.332;2023-02-28T07:43:01;102811.28;;;-2.97;96.94
75640;BME280;64233;51.486;6.332;2023-02-28T07:45:27;102810.13;;;-2.92;96.86
75640;BME280;64233;51.486;6.332;2023-02-28T07:47:54;102817.94;;;-2.80;96.44
75640;BME280;64233;51.486;6.332;2023-02-28T07:50:19;102815.50;;;-2.70;96.35
75640;BME280;64233;51.486;6.332;2023-02-28T07:52:45;102817.56;;;-2.62;95.81
75640;BME280;64233;51.486;6.332;2023-02-28T07:55:10;102814.59;;;-2.57;95.62
75640;BME280;64233;51.486;6.332;2023-02-28T07:57:36;102816.41;;;-2.47;95.27
75640;BME280;64233;51.486;6.332;2023-02-28T08:00:09;102821.81;;;-2.37;94.55
75640;BME280;64233;51.486;6.332;2023-02-28T08:02:42;102822.94;;;-2.28;93.84
75640;BME280;64233;51.486;6.332;2023-02-28T08:05:07;102820.19;;;-2.27;94.05
75640;BME280;64233;51.486;6.332;2023-02-28T08:07:33;102825.94;;;-2.21;94.63
75640;BME280;64233;51.486;6.332;2023-02-28T08:09:58;102824.31;;;-2.11;94.07
75640;BME280;64233;51.486;6.332;2023-02-28T08:12:24;102830.66;;;-2.02;93.16
75640;BME280;64233;51.486;6.332;2023-02-28T08:14:49;102835.31;;;-1.95;93.06
75640;BME280;64233;51.486;6.332;2023-02-28T08:17:15;102827.91;;;-1.89;93.18
75640;BME280;64233;51.486;6.332;2023-02-28T08:19:40;102829.94;;;-1.82;92.10
75640;BME280;64233;51.486;6.332;2023-02-28T08:22:05;102830.69;;;-1.68;92.68
75640;BME280;64233;51.486;6.332;2023-02-28T08:24:31;102823.03;;;-1.60;91.57
75640;BME280;64233;51.486;6.332;2023-02-28T08:26:56;102826.13;;;-1.55;90.80
75640;BME280;64233;51.486;6.332;2023-02-28T08:29:21;102823.13;;;-1.50;90.43
75640;BME280;64233;51.486;6.332;2023-02-28T08:31:47;102830.31;;;-1.41;90.40
75640;BME280;64233;51.486;6.332;2023-02-28T08:34:14;102824.44;;;-1.33;90.62
75640;BME280;64233;51.486;6.332;2023-02-28T08:36:40;102825.63;;;-1.26;90.79
75640;BME280;64233;51.486;6.332;2023-02-28T08:39:06;102824.91;;;-1.17;90.99
75640;BME280;64233;51.486;6.332;2023-02-28T08:41:32;102830.16;;;-1.06;90.34
75640;BME280;64233;51.486;6.332;2023-02-28T08:43:57;102831.31;;;-0.98;89.53
75640;BME280;64233;51.486;6.332;2023-02-28T08:46:23;102827.47;;;-0.94;88.34
75640;BME280;64233;51.486;6.332;2023-02-28T08:48:51;102835.63;;;-0.86;87.94
75640;BME280;64233;51.486;6.332;2023-02-28T08:51:18;102828.50;;;-0.74;88.17
75640;BME280;64233;51.486;6.332;2023-02-28T08:53:47;102831.81;;;-0.61;88.79
75640;BME280;64233;51.486;6.332;2023-02-28T08:56:15;102827.72;;;-0.54;87.59
75640;BME280;64233;51.486;6.332;2023-02-28T08:58:42;102824.16;;;-0.43;87.90
75640;BME280;64233;51.486;6.332;2023-02-28T09:01:10;102828.22;;;-0.39;86.85
75640;BME280;64233;51.486;6.332;2023-02-28T09:03:35;102823.97;;;-0.30;86.59
75640;BME280;64233;51.486;6.332;2023-02-28T09:06:01;102824.56;;;-0.26;85.75
75640;BME280;64233;51.486;6.332;2023-02-28T09:08:27;102826.19;;;-0.14;84.92
75640;BME280;64233;51.486;6.332;2023-02-28T09:10:53;102823.84;;;-0.07;85.19
75640;BME280;64233;51.486;6.332;2023-02-28T09:13:20;102821.53;;;-0.01;85.05
75640;BME280;64233;51.486;6.332;2023-02-28T09:15:46;102822.72;;;0.16;83.87
75640;BME280;64233;51.486;6.332;2023-02-28T09:18:12;102824.97;;;0.21;83.47
75640;BME280;64233;51.486;6.332;2023-02-28T09:20:38;102825.69;;;0.23;82.17
75640;BME280;64233;51.486;6.332;2023-02-28T09:23:04;102812.06;;;0.28;80.45
75640;BME280;64233;51.486;6.332;2023-02-28T09:25:30;102825.06;;;0.41;81.65
75640;BME280;64233;51.486;6.332;2023-02-28T09:27:55;102819.50;;;0.44;79.55
75640;BME280;64233;51.486;6.332;2023-02-28T09:30:20;102819.16;;;0.58;80.55
75640;BME280;64233;51.486;6.332;2023-02-28T09:32:45;102819.25;;;0.57;78.38
75640;BME280;64233;51.486;6.332;2023-02-28T09:35:17;102815.16;;;0.64;77.00
75640;BME280;64233;51.486;6.332;2023-02-28T09:37:43;102811.91;;;0.60;75.47
75640;BME280;64233;51.486;6.332;2023-02-28T09:40:09;102814.19;;;0.75;78.02
75640;BME280;64233;51.486;6.332;2023-02-28T09:42:35;102811.69;;;0.83;75.96
75640;BME280;64233;51.486;6.332;2023-02-28T09:45:02;102824.38;;;0.89;76.15
75640;BME280;64233;51.486;6.332;2023-02-28T09:47:34;102818.66;;;0.84;75.48
75640;BME280;64233;51.486;6.332;2023-02-28T09:50:29;102811.88;;;1.11;76.93
75640;BME280;64233;51.486;6.332;2023-02-28T09:52:58;102803.81;;;1.22;75.04
75640;BME280;64233;51.486;6.332;2023-02-28T09:55:39;102796.56;;;1.24;73.20
75640;BME280;64233;51.486;6.332;2023-02-28T09:58:18;102807.59;;;1.29;73.05
75640;BME280;64233;51.486;6.332;2023-02-28T10:00:50;102805.47;;;1.23;72.13
75640;BME280;64233;51.486;6.332;2023-02-28T10:03:25;102802.44;;;1.28;70.29
75640;BME280;64233;51.486;6.332;2023-02-28T10:06:11;102800.31;;;1.31;70.57
75640;BME280;64233;51.486;6.332;2023-02-28T10:09:00;102800.59;;;1.48;69.45
75640;BME280;64233;51.486;6.332;2023-02-28T10:11:27;102801.28;;;1.50;68.57
75640;BME280;64233;51.486;6.332;2023-02-28T10:14:35;102791.66;;;1.68;69.79
75640;BME280;64233;51.486;6.332;2023-02-28T10:16:50;102801.44;;;1.58;68.15
75640;BME280;64233;51.486;6.332;2023-02-28T10:19:28;102785.53;;;1.68;67.96
75640;BME280;64233;51.486;6.332;2023-02-28T10:22:17;102803.19;;;1.77;67.75
75640;BME280;64233;51.486;6.332;2023-02-28T10:24:51;102801.50;;;1.96;68.27
75640;BME280;64233;51.486;6.332;2023-02-28T10:29:46;102800.19;;;2.10;68.84
75640;BME280;64233;51.486;6.332;2023-02-28T10:32:17;102793.31;;;1.79;67.48
75640;BME280;64233;51.486;6.332;2023-02-28T10:34:43;102792.50;;;1.79;68.22
75640;BME280;64233;51.486;6.332;2023-02-28T10:37:09;102796.31;;;1.94;70.20
75640;BME280;64233;51.486;6.332;2023-02-28T10:39:45;102799.59;;;1.49;69.38
75640;BME280;64233;51.486;6.332;2023-02-28T10:42:37;102798.25;;;1.45;68.61
75640;BME280;64233;51.486;6.332;2023-02-28T10:45:13;102807.84;;;1.46;67.63
75640;BME280;64233;51.486;6.332;2023-02-28T10:47:58;102791.84;;;1.18;67.59
75640;BME280;64233;51.486;6.332;2023-02-28T10:56:00;102782.50;;;1.33;66.70
75640;BME280;64233;51.486;6.332;2023-02-28T10:58:34;102786.13;;;1.32;67.45
75640;BME280;64233;51.486;6.332;2023-02-28T11:01:13;102777.47;;;1.40;68.56
75640;BME280;64233;51.486;6.332;2023-02-28T11:03:39;102784.59;;;1.49;66.11
75640;BME280;64233;51.486;6.332;2023-02-28T11:06:18;102778.59;;;1.37;67.67
75640;BME280;64233;51.486;6.332;2023-02-28T11:08:55;102769.22;;;1.72;66.18
75640;BME280;64233;51.486;6.332;2023-02-28T11:11:22;102777.59;;;1.68;67.58
75640;BME280;64233;51.486;6.332;2023-02-28T11:13:52;102774.44;;;1.45;67.45
75640;BME280;64233;51.486;6.332;2023-02-28T11:16:18;102774.97;;;1.29;67.53
75640;BME280;64233;51.486;6.332;2023-02-28T11:18:54;102769.44;;;1.32;67.26
75640;BME280;64233;51.486;6.332;2023-02-28T11:21:23;102771.22;;;1.41;68.73
75640;BME280;64233;51.486;6.332;2023-02-28T11:24:12;102765.78;;;1.52;66.84
75640;BME280;64233;51.486;6.332;2023-02-28T11:26:48;102768.84;;;1.48;68.00
75640;BME280;64233;51.486;6.332;2023-02-28T11:29:29;102778.03;;;1.34;69.78
75640;BME280;64233;51.486;6.332;2023-02-28T11:32:12;102769.97;;;1.35;67.62
75640;BME280;64233;51.486;6.332;2023-02-28T11:34:39;102766.56;;;1.63;65.69
75640;BME280;64233;51.486;6.332;2023-02-28T11:37:10;102767.97;;;1.57;66.73
75640;BME280;64233;51.486;6.332;2023-02-28T11:39:36;102773.97;;;1.59;69.27
75640;BME280;64233;51.486;6.332;2023-02-28T11:45:03;102771.91;;;1.43;69.12
75640;BME280;64233;51.486;6.332;2023-02-28T12:01:26;102765.63;;;2.39;65.95
75640;BME280;64233;51.486;6.332;2023-02-28T12:04:15;102763.03;;;2.57;65.56
75640;BME280;64233;51.486;6.332;2023-02-28T12:06:50;102755.53;;;2.52;67.82
75640;BME280;64233;51.486;6.332;2023-02-28T12:09:47;102759.09;;;2.61;65.96
75640;BME280;64233;51.486;6.332;2023-02-28T12:26:02;102726.97;;;2.82;64.96
75640;BME280;64233;51.486;6.332;2023-02-28T12:28:39;102721.06;;;2.70;65.20
75640;BME280;64233;51.486;6.332;2023-02-28T12:31:16;102722.63;;;2.63;66.97
75640;BME280;64233;51.486;6.332;2023-02-28T12:33:47;102716.56;;;2.89;65.39
75640;BME280;64233;51.486;6.332;2023-02-28T12:36:16;102713.19;;;2.79;63.49
75640;BME280;64233;51.486;6.332;2023-02-28T12:38:56;102710.13;;;3.09;66.51
75640;BME280;64233;51.486;6.332;2023-02-28T12:41:34;102712.72;;;3.19;67.29
75640;BME280;64233;51.486;6.332;2023-02-28T12:44:09;102708.94;;;3.04;65.75
75640;BME280;64233;51.486;6.332;2023-02-28T12:46:39;102705.88;;;2.99;63.18
75640;BME280;64233;51.486;6.332;2023-02-28T12:49:10;102694.16;;;3.01;63.54
75640;BME280;64233;51.486;6.332;2023-02-28T12:51:38;102695.28;;;2.99;63.71
75640;BME280;64233;51.486;6.332;2023-02-28T12:54:21;102695.28;;;2.81;62.83
75640;BME280;64233;51.486;6.332;2023-02-28T12:57:06;102694.53;;;3.06;65.44
75640;BME280;64233;51.486;6.332;2023-02-28T12:59:46;102691.03;;;3.06;63.31
75640;BME280;64233;51.486;6.332;2023-02-28T13:02:51;102691.56;;;2.91;63.63
75640;BME280;64233;51.486;6.332;2023-02-28T13:10:48;102680.00;;;3.19;62.57
75640;BME280;64233;51.486;6.332;2023-02-28T13:13:21;102673.47;;;3.31;64.48
75640;BME280;64233;51.486;6.332;2023-02-28T13:16:05;102674.41;;;3.22;62.76
75640;BME280;64233;51.486;6.332;2023-02-28T13:18:35;102671.44;;;3.25;64.49
75640;BME280;64233;51.486;6.332;2023-02-28T13:21:03;102672.91;;;3.19;61.35
75640;BME280;64233;51.486;6.332;2023-02-28T13:26:12;102671.84;;;3.65;63.45
75640;BME280;64233;51.486;6.332;2023-02-28T13:28:59;102665.66;;;3.30;60.99
75640;BME280;64233;51.486;6.332;2023-02-28T13:31:24;102664.53;;;3.67;66.25
75640;BME280;64233;51.486;6.332;2023-02-28T13:41:48;102653.25;;;3.65;64.23
75640;BME280;64233;51.486;6.332;2023-02-28T13:44:19;102652.41;;;3.64;63.51
75640;BME280;64233;51.486;6.332;2023-02-28T13:49:30;102649.19;;;3.52;62.89
75640;BME280;64233;51.486;6.332;2023-02-28T13:55:13;102655.00;;;3.48;63.74
75640;BME280;64233;51.486;6.332;2023-02-28T14:03:36;102645.34;;;3.73;63.62
75640;BME280;64233;51.486;6.332;2023-02-28T14:06:30;102639.41;;;3.53;63.29
75640;BME280;64233;51.486;6.332;2023-02-28T14:11:41;102644.06;;;3.51;62.94
75640;BME280;64233;51.486;6.332;2023-02-28T14:14:09;102642.97;;;3.70;64.81
75640;BME280;64233;51.486;6.332;2023-02-28T14:16:41;102648.59;;;3.67;63.53
75640;BME280;64233;51.486;6.332;2023-02-28T14:19:26;102637.94;;;3.58;62.67
75640;BME280;64233;51.486;6.332;2023-02-28T14:22:32;102642.41;;;3.92;65.42
75640;BME280;64233;51.486;6.332;2023-02-28T14:36:00;102626.34;;;3.59;64.89
75640;BME280;64233;51.486;6.332;2023-02-28T14:38:32;102629.16;;;3.58;67.02
75640;BME280;64233;51.486;6.332;2023-02-28T14:41:00;102625.13;;;3.54;67.02
75640;BME280;64233;51.486;6.332;2023-02-28T14:43:28;102628.63;;;3.54;66.57
75640;BME280;64233;51.486;6.332;2023-02-28T14:45:56;102628.78;;;3.53;66.23
75640;BME280;64233;51.486;6.332;2023-02-28T14:48:22;102620.81;;;3.53;63.92
75640;BME280;64233;51.486;6.332;2023-02-28T14:50:51;102631.00;;;3.66;66.77